createdAt,value
2018-12-04T00:00:39.785Z,86.77
2018-12-04T00:03:10.174Z,86.75
2018-12-04T00:05:40.654Z,86.57
2018-12-04T00:08:10.427Z,86.86
2018-12-04T00:10:40.191Z,86.89
2018-12-04T00:13:10.342Z,86.44
2018-12-04T00:15:40.433Z,86.69
2018-12-04T00:18:10.624Z,86.63
2018-12-04T00:20:40.372Z,85.98
2018-12-04T00:23:10.288Z,86.19
2018-12-04T00:25:40.339Z,86.11
2018-12-04T00:28:10.116Z,85.46
2018-12-04T00:30:40.220Z,85.77
2018-12-04T00:33:10.280Z,85.88
2018-12-04T00:35:40.500Z,86.06
2018-12-04T00:38:10.469Z,86.18
2018-12-04T00:40:40.322Z,85.87
2018-12-04T00:43:10.224Z,86.22
2018-12-04T00:45:40.346Z,86.42
2018-12-04T00:48:10.471Z,86.49
2018-12-04T00:50:40.408Z,86.43
2018-12-04T00:53:11.316Z,86.83
2018-12-04T00:55:41.760Z,86.29
2018-12-04T00:58:11.732Z,86.14
2018-12-04T01:00:43.822Z,86.38
2018-12-04T01:03:13.685Z,86.46
2018-12-04T01:05:43.721Z,86.73
2018-12-04T01:08:13.507Z,86.32
2018-12-04T01:10:43.461Z,86.51
2018-12-04T01:13:13.617Z,86.31
2018-12-04T01:15:43.527Z,86.35
2018-12-04T01:18:13.562Z,85.77
2018-12-04T01:20:43.385Z,86.02
2018-12-04T01:23:13.472Z,86.72
2018-12-04T01:25:43.554Z,86.37
2018-12-04T01:28:14.544Z,86.37
2018-12-04T01:30:44.494Z,86.68
2018-12-04T01:33:14.266Z,86.80
2018-12-04T01:35:44.777Z,86.88
2018-12-04T01:38:14.606Z,86.94
2018-12-04T01:40:44.370Z,86.87
2018-12-04T01:43:14.506Z,86.90
2018-12-04T01:45:44.315Z,87.17
2018-12-04T01:48:14.317Z,87.18
2018-12-04T01:50:44.117Z,87.33
2018-12-04T01:53:14.216Z,87.27
2018-12-04T01:55:44.334Z,87.29
2018-12-04T01:58:14.363Z,87.47
2018-12-04T02:00:44.861Z,87.51
2018-12-04T02:03:14.651Z,87.84
2018-12-04T02:05:44.620Z,87.96
2018-12-04T02:08:14.603Z,88.02
2018-12-04T02:10:44.412Z,88.37
2018-12-04T02:13:14.846Z,88.52
2018-12-04T02:15:44.888Z,88.25
2018-12-04T02:18:15.019Z,88.32
2018-12-04T02:20:45.353Z,88.61
2018-12-04T02:23:15.132Z,88.89
2018-12-04T02:25:45.383Z,88.38
2018-12-04T02:28:15.442Z,87.99
2018-12-04T02:30:45.518Z,88.50
2018-12-04T02:33:15.445Z,88.71
2018-12-04T02:35:45.205Z,88.85
2018-12-04T02:38:15.318Z,88.74
2018-12-04T02:40:45.346Z,88.93
2018-12-04T02:43:15.411Z,88.65
2018-12-04T02:45:45.481Z,88.53
2018-12-04T02:48:15.411Z,88.84
2018-12-04T02:50:46.672Z,88.58
2018-12-04T02:53:16.487Z,89.20
2018-12-04T02:55:46.323Z,89.40
2018-12-04T02:58:16.606Z,89.12
2018-12-04T03:00:46.418Z,89.04
2018-12-04T03:03:16.679Z,88.68
2018-12-04T03:05:46.689Z,89.37
2018-12-04T03:08:16.431Z,89.28
2018-12-04T03:10:46.343Z,89.94
2018-12-04T03:13:16.349Z,89.63
2018-12-04T03:15:46.635Z,90.15
2018-12-04T03:18:16.415Z,90.17
2018-12-04T03:20:46.520Z,90.48
2018-12-04T03:23:16.826Z,90.44
2018-12-04T03:25:46.742Z,90.56
2018-12-04T03:28:16.742Z,90.45
2018-12-04T03:30:46.514Z,90.55
2018-12-04T03:33:28.747Z,91.25
2018-12-04T03:35:58.533Z,91.38
2018-12-04T03:38:28.390Z,90.88
2018-12-04T03:40:58.598Z,91.17
2018-12-04T03:44:10.541Z,90.83
2018-12-04T03:46:40.410Z,91.55
2018-12-04T03:49:10.517Z,91.22
2018-12-04T03:51:40.592Z,91.54
2018-12-04T03:54:11.552Z,91.45
2018-12-04T03:56:41.621Z,91.57
2018-12-04T03:59:11.441Z,91.31
2018-12-04T04:01:41.488Z,92.14
2018-12-04T04:04:11.457Z,92.50
2018-12-04T04:06:41.507Z,92.20
2018-12-04T04:09:11.353Z,92.42
2018-12-04T04:14:22.397Z,93.06
2018-12-04T04:16:53.135Z,92.50
2018-12-04T04:19:23.549Z,92.42
2018-12-04T04:21:53.545Z,93.12
2018-12-04T04:24:23.706Z,92.57
2018-12-04T04:26:53.688Z,92.68
2018-12-04T04:29:23.510Z,93.04
2018-12-04T04:31:53.470Z,93.41
2018-12-04T04:34:23.564Z,93.49
2018-12-04T04:36:53.474Z,94.49
2018-12-04T04:39:23.474Z,94.00
2018-12-04T04:41:53.687Z,94.15
2018-12-04T04:44:23.609Z,94.55
2018-12-04T04:46:54.557Z,94.67
2018-12-04T04:49:24.560Z,95.27
2018-12-04T04:51:54.371Z,94.98
2018-12-04T04:54:24.472Z,94.94
2018-12-04T04:56:55.264Z,95.17
2018-12-04T04:59:25.357Z,95.23
2018-12-04T05:01:55.749Z,94.43
2018-12-04T05:04:25.548Z,94.48
2018-12-04T05:06:55.447Z,94.67
2018-12-04T05:12:07.641Z,94.59
2018-12-04T05:14:37.716Z,94.57
2018-12-04T05:17:07.532Z,94.05
2018-12-04T05:19:37.509Z,94.75
2018-12-04T05:22:07.463Z,94.58
2018-12-04T05:24:37.729Z,94.70
2018-12-04T05:27:07.918Z,95.02
2018-12-04T05:29:38.028Z,94.81
2018-12-04T05:32:08.418Z,94.97
2018-12-04T05:34:38.544Z,95.72
2018-12-04T05:37:08.482Z,95.48
2018-12-04T05:39:38.372Z,95.47
2018-12-04T05:42:08.635Z,95.87
2018-12-04T05:44:38.722Z,95.65
2018-12-04T05:47:08.581Z,95.49
2018-12-04T05:49:38.515Z,95.63
2018-12-04T05:52:11.360Z,95.56
2018-12-04T05:54:42.189Z,95.60
2018-12-04T05:57:12.482Z,95.68
2018-12-04T05:59:42.578Z,95.34
2018-12-04T06:02:13.784Z,95.46
2018-12-04T06:04:43.642Z,95.60
2018-12-04T06:07:13.489Z,95.37
2018-12-04T06:09:43.526Z,95.75
2018-12-04T06:12:18.995Z,95.70
2018-12-04T06:15:06.894Z,95.50
2018-12-04T06:17:36.999Z,95.91
2018-12-04T06:20:07.441Z,95.90
2018-12-04T06:22:37.319Z,95.88
2018-12-04T06:25:09.120Z,97.18
2018-12-04T06:27:39.304Z,100.00
2018-12-04T06:30:10.152Z,100.00
2018-12-04T06:32:41.435Z,95.22
2018-12-04T06:35:11.368Z,92.73
2018-12-04T06:37:41.189Z,91.84
2018-12-04T06:40:11.391Z,92.74
2018-12-04T06:42:41.539Z,92.92
2018-12-04T06:45:11.614Z,93.74
2018-12-04T06:47:41.617Z,93.50
2018-12-04T06:50:13.088Z,93.73
2018-12-04T06:52:49.493Z,94.01
2018-12-04T06:55:19.261Z,94.04
2018-12-04T06:58:03.837Z,94.03
2018-12-04T07:00:33.731Z,94.24
2018-12-04T07:03:04.626Z,94.25
2018-12-04T07:05:34.405Z,94.06
2018-12-04T07:08:04.312Z,94.11
2018-12-04T07:10:34.584Z,93.95
2018-12-04T07:13:04.775Z,94.02
2018-12-04T07:15:34.909Z,93.92
2018-12-04T07:18:04.972Z,94.08
2018-12-04T07:20:35.660Z,94.31
2018-12-04T07:23:05.483Z,94.23
2018-12-04T07:25:35.318Z,94.33
2018-12-04T07:28:05.844Z,94.57
2018-12-04T07:30:35.813Z,94.41
2018-12-04T07:33:05.901Z,94.29
2018-12-04T07:35:36.036Z,94.31
2018-12-04T07:38:06.132Z,94.34
2018-12-04T07:40:36.207Z,94.31
2018-12-04T07:43:06.204Z,94.49
2018-12-04T07:45:36.607Z,94.72
2018-12-04T07:48:06.486Z,94.70
2018-12-04T07:50:36.571Z,94.54
2018-12-04T07:53:07.079Z,94.79
2018-12-04T07:55:37.202Z,95.10
2018-12-04T07:58:08.317Z,95.33
2018-12-04T08:00:38.385Z,95.55
2018-12-04T08:03:08.599Z,95.27
2018-12-04T08:05:38.616Z,96.07
2018-12-04T08:08:08.504Z,95.59
2018-12-04T08:10:38.375Z,95.67
2018-12-04T08:13:10.207Z,95.61
2018-12-04T08:15:40.355Z,95.81
2018-12-04T08:18:12.976Z,95.84
2018-12-04T08:20:43.773Z,96.23
2018-12-04T08:23:14.363Z,96.62
2018-12-04T08:25:45.076Z,97.19
2018-12-04T08:28:15.715Z,97.09
2018-12-04T08:30:47.288Z,97.17
2018-12-04T08:33:19.165Z,96.91
2018-12-04T08:35:50.427Z,96.60
2018-12-04T08:38:20.377Z,96.48
2018-12-04T08:40:50.594Z,96.20
2018-12-04T08:43:20.472Z,96.49
2018-12-04T08:45:50.259Z,96.20
2018-12-04T08:48:20.376Z,96.54
2018-12-04T08:50:50.523Z,96.20
2018-12-04T08:53:20.357Z,96.70
2018-12-04T08:55:51.487Z,96.80
2018-12-04T08:58:21.506Z,97.41
2018-12-04T09:03:38.221Z,97.48
2018-12-04T09:06:12.368Z,97.23
2018-12-04T09:08:42.488Z,97.05
2018-12-04T09:11:12.844Z,97.17
2018-12-04T09:13:42.948Z,96.93
2018-12-04T09:16:13.106Z,97.10
2018-12-04T09:18:43.746Z,96.72
2018-12-04T09:21:13.616Z,96.96
2018-12-04T09:23:44.201Z,97.10
2018-12-04T09:26:14.218Z,97.14
2018-12-04T09:28:44.586Z,97.09
2018-12-04T09:31:14.603Z,96.69
2018-12-04T09:33:44.876Z,96.52
2018-12-04T09:36:15.304Z,95.35
2018-12-04T09:38:45.519Z,93.25
2018-12-04T09:41:16.140Z,92.43
2018-12-04T09:43:46.441Z,92.55
2018-12-04T09:46:16.499Z,92.27
2018-12-04T09:48:46.720Z,93.16
2018-12-04T09:51:16.528Z,92.23
2018-12-04T09:53:51.913Z,92.16
2018-12-04T09:56:18.499Z,91.86
2018-12-04T09:58:48.562Z,93.25
2018-12-04T10:01:18.579Z,94.53
2018-12-04T10:03:48.521Z,95.66
2018-12-04T10:06:18.598Z,95.81
2018-12-04T10:08:48.446Z,95.72
2018-12-04T10:11:18.183Z,95.66
2018-12-04T10:13:48.294Z,95.08
2018-12-04T10:16:18.590Z,94.15
2018-12-04T10:18:48.910Z,94.15
2018-12-04T10:21:19.068Z,92.78
2018-12-04T10:23:49.564Z,92.36
2018-12-04T10:26:19.900Z,92.29
2018-12-04T10:28:50.615Z,91.75
2018-12-04T10:31:20.575Z,91.33
2018-12-04T10:33:50.472Z,91.27
2018-12-04T10:36:20.649Z,91.02
2018-12-04T10:38:50.577Z,89.88
2018-12-04T10:41:21.526Z,90.46
2018-12-04T10:43:51.885Z,89.13
2018-12-04T10:46:21.675Z,88.28
2018-12-04T10:48:51.520Z,87.51
2018-12-04T10:51:21.705Z,87.54
2018-12-04T10:53:51.511Z,87.39
2018-12-04T10:56:21.920Z,87.71
2018-12-04T10:58:52.912Z,87.25
2018-12-04T11:01:25.237Z,86.91
2018-12-04T11:03:55.051Z,86.70
2018-12-04T11:06:25.484Z,86.65
2018-12-04T11:08:55.574Z,86.17
2018-12-04T11:11:25.355Z,85.30
2018-12-04T11:13:55.445Z,84.84
2018-12-04T11:16:25.573Z,84.18
2018-12-04T11:18:56.032Z,83.49
2018-12-04T11:21:26.228Z,83.50
2018-12-04T11:23:56.255Z,83.65
2018-12-04T11:26:26.596Z,84.16
2018-12-04T11:28:56.452Z,83.89
2018-12-04T11:31:26.405Z,84.19
2018-12-04T11:33:57.409Z,84.49
2018-12-04T11:36:27.518Z,85.72
2018-12-04T11:38:57.261Z,86.76
2018-12-04T11:41:27.142Z,88.37
2018-12-04T11:43:57.564Z,89.68
2018-12-04T11:46:27.435Z,90.11
2018-12-04T11:51:43.758Z,90.75
2018-12-04T11:54:13.822Z,90.69
2018-12-04T11:56:43.994Z,91.32
2018-12-04T11:59:16.140Z,91.07
2018-12-04T12:01:47.456Z,91.02
2018-12-04T12:04:17.435Z,91.15
2018-12-04T12:06:47.221Z,91.37
2018-12-04T12:09:17.387Z,91.44
2018-12-04T12:11:47.560Z,91.22
2018-12-04T12:14:17.362Z,89.92
2018-12-04T12:16:47.572Z,90.19
2018-12-04T12:19:17.374Z,89.83
2018-12-04T12:21:47.242Z,90.43
2018-12-04T12:24:17.760Z,90.47
2018-12-04T12:26:47.868Z,90.42
2018-12-04T12:29:18.207Z,90.26
2018-12-04T12:31:48.264Z,90.31
2018-12-04T12:34:23.395Z,90.54
2018-12-04T12:36:50.460Z,87.86
2018-12-04T12:39:20.248Z,89.13
2018-12-04T12:41:50.383Z,88.36
2018-12-04T12:44:20.529Z,88.18
2018-12-04T12:46:50.752Z,89.08
2018-12-04T12:49:20.632Z,89.10
2018-12-04T12:51:50.605Z,88.88
2018-12-04T12:54:20.739Z,88.54
2018-12-04T12:56:53.605Z,87.73
2018-12-04T12:59:23.619Z,86.82
2018-12-04T13:02:00.774Z,85.66
2018-12-04T13:04:30.725Z,84.41
2018-12-04T13:07:00.714Z,83.68
2018-12-04T13:09:30.520Z,82.90
2018-12-04T13:12:00.536Z,81.94
2018-12-04T13:14:30.524Z,81.16
2018-12-04T13:17:00.494Z,80.18
2018-12-04T13:19:30.277Z,78.99
2018-12-04T13:22:00.457Z,78.95
2018-12-04T13:24:30.398Z,78.47
2018-12-04T13:27:00.464Z,77.96
2018-12-04T13:29:31.207Z,76.76
2018-12-04T13:32:01.269Z,76.97
2018-12-04T13:34:31.750Z,76.38
2018-12-04T13:37:02.168Z,76.06
2018-12-04T13:39:32.605Z,76.06
2018-12-04T13:42:02.607Z,75.44
2018-12-04T13:44:32.559Z,74.17
2018-12-04T13:47:02.814Z,73.22
2018-12-04T13:49:32.653Z,73.80
2018-12-04T13:52:02.570Z,72.89
2018-12-04T13:54:32.612Z,73.26
2018-12-04T13:57:02.486Z,73.32
2018-12-04T13:59:32.548Z,73.09
2018-12-04T14:02:02.580Z,73.07
2018-12-04T14:04:33.743Z,71.42
2018-12-04T14:07:05.651Z,70.93
2018-12-04T14:09:36.099Z,71.02
2018-12-04T14:12:06.395Z,70.35
2018-12-04T14:14:36.694Z,70.50
2018-12-04T14:17:06.597Z,70.55
2018-12-04T14:19:36.747Z,70.64
2018-12-04T14:22:06.625Z,70.00
2018-12-04T14:24:36.453Z,70.58
2018-12-04T14:27:06.548Z,70.48
2018-12-04T14:29:37.097Z,69.80
2018-12-04T14:32:07.029Z,70.54
2018-12-04T14:34:37.172Z,70.96
2018-12-04T14:37:07.565Z,71.28
2018-12-04T14:39:50.521Z,70.48
2018-12-04T14:42:20.920Z,71.08
2018-12-04T14:44:51.786Z,71.02
2018-12-04T14:47:22.524Z,70.63
2018-12-04T14:49:52.674Z,70.51
2018-12-04T14:52:22.593Z,70.43
2018-12-04T14:54:52.579Z,71.19
2018-12-04T14:57:27.057Z,71.43
2018-12-04T14:59:57.298Z,71.64
2018-12-04T15:02:27.826Z,71.62
2018-12-04T15:04:57.971Z,72.16
2018-12-04T15:07:28.580Z,72.22
2018-12-04T15:09:59.670Z,72.81
2018-12-04T15:12:29.732Z,73.21
2018-12-04T15:14:59.682Z,73.46
2018-12-04T15:17:30.152Z,73.52
2018-12-04T15:20:01.586Z,73.66
2018-12-04T15:22:31.441Z,73.70
2018-12-04T15:25:02.747Z,73.75
2018-12-04T15:27:32.640Z,73.49
2018-12-04T15:30:02.704Z,73.95
2018-12-04T15:32:32.849Z,74.73
2018-12-04T15:35:02.812Z,74.61
2018-12-04T15:37:32.845Z,75.10
2018-12-04T15:40:03.745Z,75.74
2018-12-04T15:42:33.711Z,76.04
2018-12-04T15:45:03.636Z,76.80
2018-12-04T15:47:33.636Z,76.92
2018-12-04T15:50:03.683Z,76.96
2018-12-04T15:52:33.968Z,77.33
2018-12-04T15:55:05.540Z,77.29
2018-12-04T15:57:35.640Z,77.36
2018-12-04T16:00:09.615Z,77.63
2018-12-04T16:02:39.527Z,77.81
2018-12-04T16:05:11.028Z,78.36
2018-12-04T16:07:41.299Z,78.66
2018-12-04T16:10:14.217Z,79.43
2018-12-04T16:12:51.513Z,78.95
2018-12-04T16:15:21.903Z,78.72
2018-12-04T16:17:52.163Z,78.92
2018-12-04T16:20:22.593Z,79.09
2018-12-04T16:22:52.747Z,79.03
2018-12-04T16:25:22.729Z,79.44
2018-12-04T16:27:52.910Z,80.12
2018-12-04T16:30:23.490Z,80.38
2018-12-04T16:32:53.679Z,79.89
2018-12-04T16:35:23.882Z,79.98
2018-12-04T16:40:39.206Z,80.23
2018-12-04T16:43:09.683Z,79.54
2018-12-04T16:45:39.772Z,79.17
2018-12-04T16:48:09.641Z,79.08
2018-12-04T16:50:39.563Z,79.09
2018-12-04T16:53:09.566Z,79.31
2018-12-04T16:55:39.480Z,79.18
2018-12-04T16:58:09.429Z,79.52
2018-12-04T17:00:39.443Z,79.72
2018-12-04T17:03:09.515Z,79.79
2018-12-04T17:05:39.446Z,79.81
2018-12-04T17:08:09.730Z,79.20
2018-12-04T17:10:39.524Z,79.38
2018-12-04T17:13:09.311Z,79.43
2018-12-04T17:15:39.664Z,79.00
2018-12-04T17:18:09.788Z,78.84
2018-12-04T17:20:40.100Z,79.08
2018-12-04T17:23:10.752Z,79.13
2018-12-04T17:25:41.185Z,79.22
2018-12-04T17:28:12.243Z,79.31
2018-12-04T17:30:43.704Z,79.10
2018-12-04T17:33:14.681Z,79.59
2018-12-04T17:35:45.874Z,78.88
2018-12-04T17:38:17.563Z,79.42
2018-12-04T17:40:51.531Z,79.81
2018-12-04T17:43:21.643Z,80.26
2018-12-04T17:45:52.037Z,80.91
2018-12-04T17:48:23.977Z,80.98
2018-12-04T17:50:54.614Z,80.83
2018-12-04T17:53:24.941Z,81.35
2018-12-04T17:55:55.383Z,80.87
2018-12-04T17:58:25.827Z,80.67
2018-12-04T18:00:56.012Z,80.78
2018-12-04T18:03:26.450Z,80.67
2018-12-04T18:05:56.505Z,80.67
2018-12-04T18:08:26.696Z,80.57
2018-12-04T18:10:56.774Z,80.36
2018-12-04T18:13:27.330Z,80.78
2018-12-04T18:15:58.524Z,80.08
2018-12-04T18:18:28.987Z,80.64
2018-12-04T18:20:59.797Z,81.10
2018-12-04T18:23:30.512Z,81.16
2018-12-04T18:26:00.853Z,80.87
2018-12-04T18:28:31.147Z,80.59
2018-12-04T18:31:01.682Z,80.75
2018-12-04T18:33:31.788Z,81.24
2018-12-04T18:36:02.032Z,80.56
2018-12-04T18:38:32.454Z,81.21
2018-12-04T18:41:03.086Z,81.20
2018-12-04T18:43:33.670Z,81.33
2018-12-04T18:46:05.581Z,80.67
2018-12-04T18:48:41.709Z,80.74
2018-12-04T18:51:11.958Z,80.41
2018-12-04T18:53:42.462Z,79.72
2018-12-04T18:56:12.980Z,80.06
2018-12-04T18:58:46.665Z,79.67
2018-12-04T19:01:17.680Z,79.25
2018-12-04T19:03:48.243Z,79.02
2018-12-04T19:06:20.043Z,78.48
2018-12-04T19:08:51.631Z,78.92
2018-12-04T19:11:22.113Z,79.28
2018-12-04T19:13:52.583Z,78.74
2018-12-04T19:16:30.106Z,78.54
2018-12-04T19:19:02.045Z,79.06
2018-12-04T19:21:32.813Z,79.05
2018-12-04T19:24:03.214Z,79.06
2018-12-04T19:26:33.891Z,79.22
2018-12-04T19:29:04.318Z,79.05
2018-12-04T19:31:35.132Z,79.52
2018-12-04T19:34:05.581Z,79.27
2018-12-04T19:36:36.082Z,79.47
2018-12-04T19:39:09.307Z,79.53
2018-12-04T19:41:39.822Z,78.92
2018-12-04T19:44:10.050Z,79.02
2018-12-04T19:46:40.636Z,78.98
2018-12-04T19:49:13.849Z,78.99
2018-12-04T19:51:45.345Z,78.91
2018-12-04T19:54:15.585Z,78.70
2018-12-04T19:56:46.311Z,78.62
2018-12-04T19:59:23.514Z,78.61
2018-12-04T20:01:53.915Z,78.42
2018-12-04T20:04:24.576Z,78.55
2018-12-04T20:06:55.476Z,77.99
2018-12-04T20:09:26.042Z,78.11
2018-12-04T20:11:56.650Z,78.06
2018-12-04T20:14:27.495Z,78.01
2018-12-04T20:16:58.128Z,78.42
2018-12-04T20:19:28.541Z,78.89
2018-12-04T20:21:59.562Z,78.38
2018-12-04T20:24:30.848Z,78.23
2018-12-04T20:27:01.853Z,77.77
2018-12-04T20:29:33.769Z,77.71
2018-12-04T20:32:16.837Z,77.32
2018-12-04T20:34:47.452Z,77.53
2018-12-04T20:37:18.025Z,76.86
2018-12-04T20:39:49.370Z,77.30
2018-12-04T20:42:23.222Z,77.46
2018-12-04T20:47:37.689Z,77.30
2018-12-04T20:50:09.602Z,76.76
2018-12-04T20:52:39.932Z,77.65
2018-12-04T20:55:13.754Z,77.37
2018-12-04T20:57:44.279Z,76.82
2018-12-04T21:00:16.263Z,77.57
2018-12-04T21:02:46.680Z,77.63
2018-12-04T21:05:17.072Z,78.21
2018-12-04T21:07:47.776Z,77.87
2018-12-04T21:10:17.914Z,77.93
2018-12-04T21:12:48.077Z,77.48
2018-12-04T21:15:19.661Z,77.66
2018-12-04T21:17:50.293Z,77.81
2018-12-04T21:20:21.343Z,77.31
2018-12-04T21:22:52.052Z,78.44
2018-12-04T21:25:23.235Z,77.81
2018-12-04T21:27:58.651Z,77.91
2018-12-04T21:30:33.693Z,77.98
2018-12-04T21:33:08.908Z,78.21
2018-12-04T21:35:44.476Z,78.04
2018-12-04T21:38:30.216Z,78.41
2018-12-04T21:41:04.348Z,78.31
2018-12-04T21:43:39.071Z,78.20
2018-12-04T21:46:14.751Z,78.69
2018-12-04T21:48:45.127Z,78.79
2018-12-04T21:51:15.344Z,78.15
2018-12-04T21:53:45.311Z,78.25
2018-12-04T21:56:15.656Z,78.39
2018-12-04T21:58:45.506Z,78.14
2018-12-04T22:01:16.711Z,78.66
2018-12-04T22:03:46.843Z,78.58
2018-12-04T22:06:16.789Z,79.12
2018-12-04T22:08:46.781Z,79.00
2018-12-04T22:11:16.725Z,79.30
2018-12-04T22:13:46.537Z,78.69
2018-12-04T22:16:16.440Z,78.96
2018-12-04T22:18:47.563Z,78.16
2018-12-04T22:21:17.547Z,78.30
2018-12-04T22:23:47.431Z,78.42
2018-12-04T22:26:17.554Z,79.23
2018-12-04T22:28:47.485Z,79.42
2018-12-04T22:31:17.480Z,78.69
2018-12-04T22:33:47.450Z,78.97
2018-12-04T22:36:18.868Z,79.14
2018-12-04T22:38:48.809Z,79.10
2018-12-04T22:41:19.429Z,79.26
2018-12-04T22:43:50.616Z,78.81
2018-12-04T22:46:20.490Z,78.67
2018-12-04T22:48:50.474Z,78.94
2018-12-04T22:51:21.046Z,78.68
2018-12-04T22:53:51.620Z,79.48
2018-12-04T22:56:21.597Z,79.27
2018-12-04T22:58:51.382Z,78.98
2018-12-04T23:01:41.186Z,78.64
2018-12-04T23:04:11.359Z,78.48
2018-12-04T23:06:41.364Z,79.41
2018-12-04T23:09:11.828Z,79.22
2018-12-04T23:11:41.668Z,78.65
2018-12-04T23:14:11.489Z,79.51
2018-12-04T23:16:42.696Z,78.90
2018-12-04T23:19:12.774Z,79.91
2018-12-04T23:21:43.654Z,79.78
2018-12-04T23:24:13.598Z,80.12
2018-12-04T23:26:43.336Z,79.70
2018-12-04T23:29:23.848Z,79.63
2018-12-04T23:31:54.121Z,80.10
2018-12-04T23:34:24.318Z,80.70
2018-12-04T23:36:54.084Z,81.28
2018-12-04T23:39:24.201Z,80.92
2018-12-04T23:41:54.357Z,81.00
2018-12-04T23:44:25.708Z,81.01
2018-12-04T23:46:55.523Z,80.42
2018-12-04T23:49:25.293Z,80.64
2018-12-04T23:51:55.419Z,81.11
2018-12-04T23:54:25.243Z,80.66
2018-12-04T23:56:55.089Z,80.80
2018-12-04T23:59:25.288Z,81.33
